Time;durP1;ratioP1;P1;durP2;ratioP2;P2;SDS_P1;SDS_P2;PMS_P1;PMS_P2;Temp;Humidity;BMP_temperature;BMP_pressure;BME280_temperature;BME280_humidity;BME280_pressure;Samples;Min_cycle;Max_cycle;Signal;HPM_P1;HPM_P2
2022/08/02 00:01:38;;;;;;;0.40;0.40;;;17.20;99.00;;;;;;5075625;28;20442;-69
2022/08/02 00:04:04;;;;;;;0.50;0.50;;;17.20;99.10;;;;;;5093664;28;20916;-68
2022/08/02 00:06:30;;;;;;;0.50;0.50;;;17.00;99.40;;;;;;5093638;28;20453;-69
2022/08/02 00:08:55;;;;;;;0.57;0.57;;;17.00;99.70;;;;;;5093386;28;20478;-69
2022/08/02 00:11:21;;;;;;;0.50;0.50;;;17.00;99.90;;;;;;5093774;28;20173;-68
2022/08/02 00:13:47;;;;;;;0.63;0.63;;;17.00;99.90;;;;;;5093525;28;20196;-68
2022/08/02 00:16:13;;;;;;;0.70;0.57;;;17.10;99.90;;;;;;5093773;28;20180;-68
2022/08/02 00:18:39;;;;;;;0.60;0.40;;;17.10;99.90;;;;;;5093573;28;20256;-69
2022/08/02 00:21:05;;;;;;;0.50;0.50;;;17.10;99.90;;;;;;5093683;28;20905;-67
2022/08/02 00:23:30;;;;;;;1.60;1.50;;;17.00;99.90;;;;;;5095056;28;20405;-68
2022/08/02 00:25:57;;;;;;;0.60;0.50;;;17.10;99.90;;;;;;5097598;28;20200;-67
2022/08/02 00:28:24;;;;;;;0.40;0.40;;;17.20;99.90;;;;;;5097336;28;20531;-69
2022/08/02 00:30:49;;;;;;;0.30;0.30;;;17.20;99.90;;;;;;5097526;28;20427;-69
2022/08/02 00:33:18;;;;;;;1.77;1.63;;;17.20;99.90;;;;;;5097556;28;20440;-67
2022/08/02 00:35:47;;;;;;;0.50;0.50;;;17.20;99.90;;;;;;5079246;28;20626;-69
2022/08/02 00:38:13;;;;;;;0.50;0.50;;;17.20;99.90;;;;;;5097436;28;20960;-70
2022/08/02 00:40:39;;;;;;;0.50;0.50;;;17.20;99.90;;;;;;5097254;28;20399;-67
2022/08/02 00:43:09;;;;;;;0.50;0.50;;;17.20;99.90;;;;;;5097509;28;20173;-69
2022/08/02 00:45:37;;;;;;;0.70;0.50;;;17.20;99.90;;;;;;5097073;28;20445;-69
2022/08/02 00:48:05;;;;;;;0.60;0.60;;;17.20;99.90;;;;;;5096977;28;20507;-68
2022/08/02 00:50:31;;;;;;;1.07;0.60;;;17.20;99.80;;;;;;5097204;28;20406;-67
2022/08/02 00:52:57;;;;;;;0.40;0.40;;;17.10;99.90;;;;;;5097294;28;20758;-68
2022/08/02 00:55:22;;;;;;;0.77;0.77;;;17.10;99.90;;;;;;5096931;28;20422;-69
2022/08/02 00:57:48;;;;;;;0.50;0.50;;;17.00;99.90;;;;;;5097011;28;20696;-67
2022/08/02 01:00:15;;;;;;;0.53;0.53;;;17.00;99.90;;;;;;5097019;28;20255;-68
2022/08/02 01:02:41;;;;;;;0.40;0.40;;;17.00;99.90;;;;;;5096850;28;20436;-70
2022/08/02 01:05:07;;;;;;;0.60;0.60;;;17.00;99.90;;;;;;5096830;28;20422;-68
2022/08/02 01:07:33;;;;;;;1.00;1.00;;;16.90;99.90;;;;;;5096923;28;20442;-67
2022/08/02 01:09:59;;;;;;;0.30;0.30;;;17.00;99.90;;;;;;5097298;28;20403;-69
2022/08/02 01:12:26;;;;;;;0.53;0.53;;;16.90;99.90;;;;;;5096731;28;20403;-68
2022/08/02 01:14:55;;;;;;;1.37;0.60;;;16.90;99.90;;;;;;5096604;28;20506;-68
2022/08/02 01:17:27;;;;;;;0.50;0.50;;;16.90;99.90;;;;;;5096608;28;20410;-68
2022/08/02 01:20:26;;;;;;;0.70;0.70;;;16.90;99.90;;;;;;5096592;28;20490;-70
2022/08/02 01:23:14;;;;;;;0.80;0.67;;;16.90;99.90;;;;;;5096753;28;20431;-68
2022/08/02 01:26:12;;;;;;;0.60;0.60;;;16.80;99.90;;;;;;5096402;28;20467;-68
2022/08/02 01:28:51;;;;;;;0.40;0.37;;;16.80;99.90;;;;;;5062138;28;20817;-67
2022/08/02 01:31:27;;;;;;;0.70;0.70;;;16.80;99.90;;;;;;5096638;28;20571;-68
2022/08/02 01:34:17;;;;;;;1.27;1.23;;;16.80;99.90;;;;;;5096214;28;20952;-68
2022/08/02 01:36:52;;;;;;;1.83;0.57;;;16.70;99.90;;;;;;5096295;28;20418;-67
2022/08/02 01:39:22;;;;;;;2.00;1.90;;;16.70;99.90;;;;;;5096120;28;20390;-69
2022/08/02 01:41:49;;;;;;;4.00;1.00;;;16.70;99.90;;;;;;5096204;28;20407;-69
2022/08/02 01:44:17;;;;;;;0.93;0.70;;;16.70;99.90;;;;;;5096154;28;20427;-67
2022/08/02 01:46:45;;;;;;;0.40;0.40;;;16.70;99.90;;;;;;5096037;28;20501;-67
2022/08/02 01:49:16;;;;;;;1.30;1.10;;;16.70;99.90;;;;;;5095840;28;20808;-68
2022/08/02 01:54:31;;;;;;;1.33;1.00;;;16.70;99.90;;;;;;5096070;28;20479;-68
2022/08/02 01:56:59;;;;;;;0.70;0.50;;;16.60;99.90;;;;;;5095845;28;20459;-68
2022/08/02 01:59:26;;;;;;;0.60;0.60;;;16.50;99.90;;;;;;5095825;28;20488;-69
2022/08/02 02:01:54;;;;;;;1.07;0.90;;;16.50;99.90;;;;;;5095855;28;20414;-68
2022/08/02 02:04:21;;;;;;;1.03;0.67;;;16.60;99.90;;;;;;5095553;28;20456;-67
2022/08/02 02:06:48;;;;;;;1.13;0.80;;;16.60;99.90;;;;;;5095883;28;20406;-68
2022/08/02 02:09:15;;;;;;;0.30;0.30;;;16.50;99.90;;;;;;5095581;28;20492;-67
2022/08/02 02:11:45;;;;;;;0.40;0.40;;;16.50;99.90;;;;;;5095704;28;20405;-69
2022/08/02 02:14:12;;;;;;;0.70;0.70;;;16.50;99.90;;;;;;5095661;28;20449;-69
2022/08/02 02:16:41;;;;;;;0.50;0.50;;;16.50;99.90;;;;;;5095922;28;20414;-68
2022/08/02 02:19:09;;;;;;;0.67;0.67;;;16.50;99.90;;;;;;5095326;28;20827;-68
2022/08/02 02:21:36;;;;;;;0.40;0.40;;;16.50;99.90;;;;;;5095741;28;20460;-67
2022/08/02 02:24:02;;;;;;;1.07;0.77;;;16.50;99.90;;;;;;5095388;28;20781;-67
2022/08/02 02:26:29;;;;;;;0.60;0.60;;;16.40;99.90;;;;;;5095232;28;20410;-69
2022/08/02 02:29:00;;;;;;;0.90;0.87;;;16.50;99.90;;;;;;5094989;28;20823;-68
2022/08/02 02:31:28;;;;;;;0.60;0.60;;;16.50;99.90;;;;;;5095254;28;20508;-69
2022/08/02 02:34:15;;;;;;;0.90;0.90;;;16.50;99.90;;;;;;5095031;28;20433;-69
2022/08/02 02:36:46;;;;;;;0.53;0.53;;;16.40;99.90;;;;;;5094970;28;20421;-67
2022/08/02 02:39:14;;;;;;;0.60;0.60;;;16.40;99.90;;;;;;5094942;28;20463;-69
2022/08/02 02:41:42;;;;;;;0.73;0.73;;;16.40;99.90;;;;;;5095185;28;20403;-67
2022/08/02 02:44:12;;;;;;;0.73;0.73;;;16.40;99.90;;;;;;5094914;28;20551;-68
2022/08/02 02:46:39;;;;;;;1.27;0.90;;;16.40;99.90;;;;;;5094365;28;20441;-68
2022/08/02 02:49:06;;;;;;;1.37;0.70;;;16.30;99.90;;;;;;5094682;28;20469;-67
2022/08/02 02:51:33;;;;;;;0.90;0.90;;;16.30;99.90;;;;;;5095030;28;20751;-69
2022/08/02 02:53:59;;;;;;;0.70;0.70;;;16.30;99.90;;;;;;5094893;28;20425;-68
2022/08/02 02:56:25;;;;;;;0.63;0.63;;;16.30;99.90;;;;;;5094949;28;20493;-67
2022/08/02 02:58:53;;;;;;;1.47;1.37;;;16.30;99.90;;;;;;5094564;28;20494;-68
2022/08/02 03:01:31;;;;;;;0.90;0.90;;;16.30;99.90;;;;;;5094723;28;20590;-68
2022/08/02 03:04:01;;;;;;;0.63;0.63;;;16.30;99.90;;;;;;5094443;28;20481;-67
2022/08/02 03:06:28;;;;;;;1.07;0.97;;;16.20;99.90;;;;;;5094734;28;20417;-69
2022/08/02 03:08:54;;;;;;;0.93;0.83;;;16.30;99.90;;;;;;5094287;28;20454;-68
2022/08/02 03:11:21;;;;;;;1.07;0.40;;;16.20;99.90;;;;;;5094497;28;20395;-68
2022/08/02 03:13:47;;;;;;;1.50;1.47;;;16.20;99.90;;;;;;5094433;28;20747;-68
2022/08/02 03:16:13;;;;;;;0.60;0.60;;;16.10;99.90;;;;;;5094355;28;20413;-68
2022/08/02 03:18:42;;;;;;;2.30;1.67;;;16.10;99.90;;;;;;5094119;28;20469;-66
2022/08/02 03:21:10;;;;;;;1.70;0.93;;;16.20;99.90;;;;;;5094441;28;20819;-69
2022/08/02 03:23:37;;;;;;;0.93;0.60;;;16.10;99.90;;;;;;5094153;28;20437;-67
2022/08/02 03:26:03;;;;;;;0.70;0.70;;;16.10;99.90;;;;;;5094156;28;20425;-69
2022/08/02 03:28:29;;;;;;;0.60;0.60;;;16.20;99.90;;;;;;5093907;28;20454;-68
2022/08/02 03:30:55;;;;;;;1.37;1.27;;;16.20;99.90;;;;;;5094635;28;20410;-68
2022/08/02 03:33:22;;;;;;;1.40;1.13;;;16.10;99.90;;;;;;5094194;28;20403;-67
2022/08/02 03:35:49;;;;;;;0.80;0.43;;;16.10;99.90;;;;;;5094022;28;20629;-67
2022/08/02 03:38:18;;;;;;;0.67;0.67;;;16.10;99.90;;;;;;5093840;28;20402;-69
2022/08/02 03:40:45;;;;;;;0.97;0.70;;;16.10;99.90;;;;;;5094031;28;20430;-68
2022/08/02 03:43:11;;;;;;;2.30;0.80;;;16.10;99.90;;;;;;5094021;28;20411;-67
2022/08/02 03:45:46;;;;;;;1.37;1.07;;;16.10;99.90;;;;;;5093797;28;20492;-68
2022/08/02 03:48:14;;;;;;;0.60;0.60;;;16.10;99.90;;;;;;5093782;28;20454;-68
2022/08/02 03:50:41;;;;;;;0.97;0.97;;;16.10;99.90;;;;;;5094010;28;20881;-67
2022/08/02 03:53:07;;;;;;;0.80;0.80;;;16.00;99.90;;;;;;5075802;28;20406;-69
2022/08/02 03:55:34;;;;;;;0.83;0.77;;;16.10;99.90;;;;;;5093541;28;20426;-67
2022/08/02 03:58:00;;;;;;;1.07;0.60;;;16.10;99.90;;;;;;5092728;28;20432;-68
2022/08/02 04:00:26;;;;;;;0.40;0.40;;;16.00;99.90;;;;;;5093863;28;20407;-67
2022/08/02 04:02:52;;;;;;;0.43;0.40;;;16.10;99.90;;;;;;5093501;28;20761;-68
2022/08/02 04:05:18;;;;;;;1.00;0.77;;;16.00;99.90;;;;;;5093633;28;20329;-69
2022/08/02 04:07:45;;;;;;;0.90;0.90;;;16.00;99.90;;;;;;5093469;28;20492;-69
2022/08/02 04:10:11;;;;;;;1.30;0.70;;;16.00;99.90;;;;;;5093644;28;20427;-67
2022/08/02 04:12:37;;;;;;;0.50;0.50;;;16.00;99.90;;;;;;5093712;28;20491;-69
2022/08/02 04:15:05;;;;;;;0.30;0.30;;;16.00;99.90;;;;;;5093518;28;20885;-68
2022/08/02 04:17:34;;;;;;;2.73;1.50;;;16.00;99.90;;;;;;5093458;28;20410;-66
2022/08/02 04:20:05;;;;;;;0.40;0.40;;;16.10;99.90;;;;;;5093534;28;20988;-66
2022/08/02 04:22:39;;;;;;;0.77;0.73;;;16.10;99.90;;;;;;5093716;28;20423;-69
2022/08/02 04:25:07;;;;;;;0.60;0.60;;;16.20;99.90;;;;;;5093418;28;20459;-68
2022/08/02 04:27:36;;;;;;;0.77;0.77;;;16.10;99.90;;;;;;5093524;28;20456;-69
2022/08/02 04:30:04;;;;;;;1.33;1.23;;;16.10;99.90;;;;;;5093534;28;20426;-70
2022/08/02 04:32:30;;;;;;;0.70;0.70;;;16.20;99.90;;;;;;5093369;28;20412;-68
2022/08/02 04:34:57;;;;;;;2.63;0.97;;;16.20;99.90;;;;;;5093285;28;20793;-67
2022/08/02 04:37:24;;;;;;;1.27;0.70;;;16.20;99.90;;;;;;5093564;28;20415;-68
2022/08/02 04:39:49;;;;;;;0.97;0.73;;;16.30;99.90;;;;;;5093240;28;20814;-69
2022/08/02 04:42:25;;;;;;;0.60;0.60;;;16.40;99.90;;;;;;5093458;28;20410;-67
2022/08/02 04:44:52;;;;;;;5.20;0.80;;;16.40;99.90;;;;;;5093358;28;20656;-68
2022/08/02 04:47:20;;;;;;;0.50;0.50;;;16.50;99.90;;;;;;5093231;28;20446;-70
2022/08/02 04:49:46;;;;;;;2.30;0.73;;;16.60;99.90;;;;;;5093129;28;20883;-69
2022/08/02 04:52:12;;;;;;;1.10;0.97;;;16.60;99.90;;;;;;5093409;28;20398;-68
2022/08/02 04:54:38;;;;;;;0.70;0.70;;;16.70;99.90;;;;;;5093200;28;20287;-68
2022/08/02 04:59:49;;;;;;;0.70;0.70;;;16.90;99.90;;;;;;5093077;28;20398;-66
2022/08/02 05:02:15;;;;;;;2.10;0.73;;;17.10;99.90;;;;;;5093227;28;20418;-68
2022/08/02 05:04:40;;;;;;;0.53;0.53;;;17.40;99.90;;;;;;5093003;28;20435;-68
2022/08/02 05:07:06;;;;;;;0.50;0.50;;;17.70;99.90;;;;;;5093047;28;20175;-67
2022/08/02 05:09:31;;;;;;;0.67;0.50;;;17.90;99.90;;;;;;5094276;28;20173;-68
2022/08/02 05:11:57;;;;;;;0.60;0.60;;;18.10;99.90;;;;;;5096816;28;20208;-67
2022/08/02 05:14:23;;;;;;;1.43;0.63;;;18.50;99.90;;;;;;5096921;28;20288;-68
2022/08/02 05:16:48;;;;;;;1.17;1.00;;;18.90;99.90;;;;;;5096816;28;20168;-69
2022/08/02 05:19:14;;;;;;;0.50;0.50;;;19.10;99.30;;;;;;5096732;28;20173;-68
2022/08/02 05:21:39;;;;;;;0.80;0.80;;;19.40;99.10;;;;;;5096819;28;20182;-70
2022/08/02 05:24:06;;;;;;;0.40;0.40;;;19.60;98.30;;;;;;5096616;28;20228;-69
2022/08/02 05:26:31;;;;;;;0.40;0.40;;;19.80;98.00;;;;;;5096467;28;20626;-67
2022/08/02 05:28:57;;;;;;;1.70;1.27;;;20.00;97.20;;;;;;5096241;28;20461;-67
2022/08/02 05:31:22;;;;;;;0.60;0.60;;;20.10;97.20;;;;;;5096522;28;20171;-68
2022/08/02 05:33:48;;;;;;;0.87;0.83;;;20.10;97.10;;;;;;5096268;28;20195;-69
2022/08/02 05:36:14;;;;;;;0.53;0.53;;;20.10;97.00;;;;;;5096322;28;20241;-69
2022/08/02 05:38:39;;;;;;;0.40;0.40;;;20.20;96.80;;;;;;5096178;28;20180;-69
2022/08/02 05:41:05;;;;;;;0.40;0.40;;;20.20;96.60;;;;;;5096266;28;20179;-70
2022/08/02 05:43:31;;;;;;;0.50;0.50;;;20.30;96.60;;;;;;5096166;28;20221;-70
2022/08/02 05:45:57;;;;;;;1.00;0.87;;;20.30;96.30;;;;;;5096362;28;20407;-70
2022/08/02 05:48:23;;;;;;;0.60;0.60;;;20.40;96.30;;;;;;5095902;28;20548;-69
2022/08/02 05:50:54;;;;;;;0.80;0.80;;;20.40;96.20;;;;;;5096041;28;20194;-70
2022/08/02 05:53:40;;;;;;;1.93;1.00;;;20.40;96.50;;;;;;5096609;28;20890;-67
2022/08/02 05:56:24;;;;;;;0.50;0.50;;;20.50;96.50;;;;;;5096320;28;20387;-70
2022/08/02 05:59:03;;;;;;;0.70;0.70;;;20.40;96.40;;;;;;5095836;28;20416;-68
2022/08/02 06:01:35;;;;;;;0.50;0.50;;;20.40;96.50;;;;;;5095929;28;20413;-67
2022/08/02 06:04:14;;;;;;;0.60;0.60;;;20.40;96.60;;;;;;5095646;28;20451;-69
2022/08/02 06:06:45;;;;;;;0.50;0.50;;;20.50;96.50;;;;;;5095796;28;20409;-70
2022/08/02 06:09:17;;;;;;;0.80;0.67;;;20.50;96.40;;;;;;5077427;28;20451;-67
2022/08/02 06:11:45;;;;;;;0.70;0.70;;;20.60;96.30;;;;;;5095574;28;20489;-68
2022/08/02 06:14:12;;;;;;;0.60;0.60;;;20.60;96.30;;;;;;5095626;28;20423;-69
2022/08/02 06:16:38;;;;;;;0.90;0.90;;;20.50;96.10;;;;;;5095532;28;20842;-70
2022/08/02 06:19:05;;;;;;;0.60;0.53;;;20.50;96.20;;;;;;5095525;28;20407;-69
2022/08/02 06:21:31;;;;;;;0.70;0.70;;;20.50;96.40;;;;;;5094780;28;20406;-69
2022/08/02 06:23:58;;;;;;;0.50;0.50;;;20.70;96.60;;;;;;5095472;28;20426;-68
2022/08/02 06:26:25;;;;;;;0.40;0.40;;;20.80;96.70;;;;;;5095363;28;20437;-68
2022/08/02 06:28:56;;;;;;;0.63;0.63;;;21.00;96.70;;;;;;5095040;28;20454;-69
2022/08/02 06:31:22;;;;;;;0.83;0.83;;;21.20;96.70;;;;;;5095316;28;20400;-68
2022/08/02 06:33:48;;;;;;;1.03;1.00;;;21.60;96.00;;;;;;5095169;28;20753;-69
2022/08/02 06:36:48;;;;;;;0.80;0.80;;;22.10;95.80;;;;;;5095421;28;20417;-70
2022/08/02 06:39:25;;;;;;;0.87;0.83;;;22.50;95.00;;;;;;5095060;28;20160;-68
2022/08/02 06:41:53;;;;;;;0.47;0.47;;;22.90;94.50;;;;;;5076980;28;20410;-69
2022/08/02 06:44:19;;;;;;;0.60;0.60;;;23.20;93.50;;;;;;5076779;28;20946;-70
2022/08/02 06:46:44;;;;;;;0.40;0.40;;;23.60;93.50;;;;;;5095145;28;20414;-68
2022/08/02 06:49:10;;;;;;;0.50;0.50;;;24.00;92.90;;;;;;5094703;28;20600;-68
2022/08/02 06:51:36;;;;;;;0.80;0.80;;;24.40;92.00;;;;;;5095018;28;20165;-67
2022/08/02 06:54:01;;;;;;;0.40;0.40;;;24.60;91.60;;;;;;5094731;28;20199;-65
2022/08/02 06:56:27;;;;;;;0.70;0.70;;;24.80;91.40;;;;;;5094867;28;20172;-65
2022/08/02 06:58:53;;;;;;;0.57;0.57;;;24.80;91.20;;;;;;5094685;28;20173;-65
2022/08/02 07:01:19;;;;;;;0.60;0.60;;;24.80;91.10;;;;;;5076672;28;20184;-70
2022/08/02 07:03:44;;;;;;;0.60;0.60;;;24.70;91.00;;;;;;5094480;28;20208;-68
2022/08/02 07:06:10;;;;;;;0.70;0.70;;;24.90;91.20;;;;;;5094575;28;20382;-70
2022/08/02 07:08:39;;;;;;;0.60;0.50;;;25.00;91.00;;;;;;5094534;28;20557;-67
2022/08/02 07:11:06;;;;;;;0.60;0.60;;;25.10;90.60;;;;;;5094770;28;20219;-69
2022/08/02 07:13:32;;;;;;;0.40;0.40;;;25.40;90.70;;;;;;5094481;28;20386;-69
2022/08/02 07:15:58;;;;;;;1.50;0.70;;;25.80;89.70;;;;;;5094424;28;20407;-68
2022/08/02 07:18:24;;;;;;;1.23;0.77;;;26.20;86.60;;;;;;5094285;28;20256;-69
2022/08/02 07:20:51;;;;;;;0.70;0.70;;;26.40;85.80;;;;;;5094734;28;20468;-69
2022/08/02 07:23:17;;;;;;;0.73;0.73;;;26.40;85.00;;;;;;5094349;28;20173;-69
2022/08/02 07:25:43;;;;;;;1.23;0.63;;;26.90;83.00;;;;;;5094117;28;20434;-69
2022/08/02 07:28:10;;;;;;;0.50;0.50;;;27.40;79.70;;;;;;5094035;28;20458;-70
2022/08/02 07:30:36;;;;;;;0.63;0.63;;;28.20;78.90;;;;;;5094384;28;20435;-68
2022/08/02 07:33:03;;;;;;;1.10;0.70;;;29.50;73.90;;;;;;5094097;28;20399;-70
2022/08/02 07:35:29;;;;;;;0.60;0.60;;;30.90;70.00;;;;;;5093972;28;20434;-69
2022/08/02 07:37:54;;;;;;;0.70;0.70;;;32.20;62.20;;;;;;5094116;28;20494;-67
2022/08/02 07:40:21;;;;;;;0.77;0.77;;;33.10;59.40;;;;;;5094042;28;20173;-68
2022/08/02 07:42:48;;;;;;;0.97;0.83;;;34.10;56.10;;;;;;5075916;28;20660;-67
2022/08/02 07:45:14;;;;;;;1.17;1.00;;;35.20;52.70;;;;;;5093829;28;20426;-69
2022/08/02 07:47:40;;;;;;;0.97;0.90;;;36.00;51.00;;;;;;5075641;28;20480;-68
2022/08/02 07:50:08;;;;;;;1.07;0.97;;;36.60;47.30;;;;;;5093824;28;20181;-69
2022/08/02 07:52:34;;;;;;;1.20;0.90;;;37.70;45.20;;;;;;5093876;28;20403;-67
2022/08/02 07:55:00;;;;;;;0.93;0.90;;;38.30;43.30;;;;;;5094174;28;20926;-68
2022/08/02 07:57:25;;;;;;;0.97;0.83;;;38.60;42.10;;;;;;5093866;28;20200;-69
2022/08/02 07:59:51;;;;;;;0.70;0.70;;;39.00;40.70;;;;;;5093712;28;20171;-68
2022/08/02 08:02:17;;;;;;;0.70;0.60;;;39.00;40.60;;;;;;5093680;28;20211;-68
2022/08/02 08:04:43;;;;;;;1.47;0.93;;;38.80;39.80;;;;;;5093638;28;20287;-68
2022/08/02 08:07:10;;;;;;;0.70;0.70;;;38.40;41.00;;;;;;5093801;28;20201;-68
2022/08/02 08:09:43;;;;;;;0.63;0.63;;;38.90;40.20;;;;;;5092960;28;20175;-68
2022/08/02 08:12:10;;;;;;;0.80;0.80;;;39.30;39.10;;;;;;5093433;28;20403;-68
2022/08/02 08:14:37;;;;;;;0.77;0.53;;;39.60;38.70;;;;;;5093610;28;20422;-67
2022/08/02 08:17:03;;;;;;;0.70;0.70;;;40.00;38.50;;;;;;5093432;28;20489;-69
2022/08/02 08:19:28;;;;;;;0.60;0.57;;;40.40;37.20;;;;;;5093311;28;20407;-68
2022/08/02 08:21:54;;;;;;;0.50;0.50;;;40.80;36.50;;;;;;5093599;28;20180;-69
2022/08/02 08:24:19;;;;;;;0.70;0.50;;;41.40;35.60;;;;;;5093524;28;20199;-69
2022/08/02 08:26:45;;;;;;;2.73;0.80;;;40.40;35.10;;;;;;5093483;28;20177;-68
2022/08/02 08:29:11;;;;;;;0.93;0.90;;;40.50;35.30;;;;;;5093161;28;20301;-66
2022/08/02 08:31:36;;;;;;;0.93;0.87;;;39.80;35.10;;;;;;5093559;28;20168;-67
2022/08/02 08:34:03;;;;;;;0.70;0.70;;;40.10;35.80;;;;;;5093312;28;20184;-68
2022/08/02 08:36:30;;;;;;;0.63;0.60;;;39.20;36.30;;;;;;5093360;28;20191;-67
2022/08/02 08:38:55;;;;;;;0.67;0.50;;;38.60;36.50;;;;;;5093398;28;20410;-69
2022/08/02 08:41:21;;;;;;;0.50;0.50;;;39.20;36.10;;;;;;5093434;28;20486;-67
2022/08/02 08:43:47;;;;;;;1.07;0.97;;;40.50;35.70;;;;;;5094069;28;20362;-67
2022/08/02 08:46:31;;;;;;;0.67;0.67;;;41.50;34.40;;;;;;5097476;28;20199;-68
2022/08/02 08:49:17;;;;;;;0.50;0.50;;;41.40;35.30;;;;;;5097188;28;20538;-68
2022/08/02 08:51:43;;;;;;;0.50;0.50;;;40.50;34.00;;;;;;5097377;28;20405;-68
2022/08/02 08:54:14;;;;;;;0.97;0.73;;;39.50;35.20;;;;;;5097162;28;20434;-69
2022/08/02 08:56:40;;;;;;;0.70;0.70;;;37.70;37.00;;;;;;5097048;28;20395;-68
2022/08/02 08:59:06;;;;;;;1.27;0.80;;;36.40;40.20;;;;;;5097007;28;20414;-69
2022/08/02 09:01:33;;;;;;;0.87;0.57;;;36.90;40.40;;;;;;5097076;28;20403;-68
2022/08/02 09:03:58;;;;;;;0.70;0.70;;;36.00;39.90;;;;;;5096781;28;20212;-69
2022/08/02 09:06:24;;;;;;;0.60;0.60;;;36.00;39.80;;;;;;5096911;28;20517;-69
2022/08/02 09:08:51;;;;;;;1.00;0.40;;;36.70;40.10;;;;;;5096634;28;20200;-68
2022/08/02 09:11:23;;;;;;;1.53;1.43;;;36.50;39.90;;;;;;5097031;28;20780;-67
2022/08/02 09:14:00;;;;;;;0.50;0.50;;;35.60;40.30;;;;;;5078579;28;20430;-68
2022/08/02 09:16:37;;;;;;;0.40;0.40;;;36.20;39.80;;;;;;5097003;28;20387;-67
2022/08/02 09:19:17;;;;;;;0.50;0.50;;;35.20;40.30;;;;;;5096524;28;20465;-68
2022/08/02 09:21:43;;;;;;;0.60;0.60;;;33.70;42.60;;;;;;5096897;28;20529;-68
2022/08/02 09:24:20;;;;;;;0.70;0.70;;;33.10;45.10;;;;;;5096681;28;20442;-68
2022/08/02 09:26:47;;;;;;;1.00;0.90;;;33.40;43.60;;;;;;5096727;28;20409;-67
2022/08/02 09:29:14;;;;;;;0.67;0.67;;;32.40;44.40;;;;;;5096413;28;20457;-68
2022/08/02 09:31:40;;;;;;;0.60;0.53;;;32.80;45.60;;;;;;5096579;28;20428;-68
2022/08/02 09:34:06;;;;;;;0.60;0.60;;;33.80;43.80;;;;;;5096471;28;20449;-67
2022/08/02 09:36:41;;;;;;;0.50;0.40;;;34.40;43.00;;;;;;5078164;28;20472;-68
2022/08/02 09:39:11;;;;;;;0.53;0.53;;;35.30;40.80;;;;;;5096187;28;20494;-69
2022/08/02 09:41:42;;;;;;;0.77;0.70;;;36.10;40.50;;;;;;5096477;28;20418;-67
2022/08/02 09:44:11;;;;;;;0.63;0.50;;;36.70;39.10;;;;;;5096253;28;20427;-67
2022/08/02 09:46:42;;;;;;;0.50;0.50;;;37.10;38.50;;;;;;5096073;28;20402;-68
2022/08/02 09:49:15;;;;;;;0.60;0.60;;;36.10;37.20;;;;;;5096004;28;20532;-68
2022/08/02 09:51:52;;;;;;;0.50;0.50;;;35.30;38.30;;;;;;5095752;28;20399;-68
2022/08/02 09:54:23;;;;;;;0.90;0.50;;;34.80;40.60;;;;;;5096035;28;20475;-69
2022/08/02 09:56:50;;;;;;;0.53;0.50;;;33.90;40.20;;;;;;5095910;28;20391;-67
2022/08/02 09:59:19;;;;;;;0.60;0.57;;;33.10;40.60;;;;;;5095756;28;20454;-66
2022/08/02 10:01:46;;;;;;;0.60;0.60;;;32.70;41.50;;;;;;5095706;28;20410;-68
2022/08/02 10:04:13;;;;;;;0.70;0.40;;;33.50;40.70;;;;;;5095567;28;20866;-67
2022/08/02 10:06:43;;;;;;;1.33;0.60;;;33.60;39.50;;;;;;5095717;28;20527;-69
2022/08/02 10:09:09;;;;;;;0.40;0.40;;;33.50;41.10;;;;;;5095447;28;20450;-67
2022/08/02 10:11:35;;;;;;;0.50;0.40;;;33.70;40.80;;;;;;5095825;28;20399;-67
2022/08/02 10:14:06;;;;;;;0.40;0.40;;;34.30;39.70;;;;;;5095513;28;20522;-67
2022/08/02 10:16:36;;;;;;;0.40;0.40;;;33.70;39.60;;;;;;5095857;28;20165;-67
2022/08/02 10:19:03;;;;;;;0.40;0.40;;;32.30;41.20;;;;;;5095447;28;20406;-67
2022/08/02 10:21:57;;;;;;;0.50;0.50;;;31.70;42.80;;;;;;5077437;28;20456;-67
2022/08/02 10:24:30;;;;;;;0.70;0.70;;;32.00;42.90;;;;;;5095569;28;20786;-66
2022/08/02 10:26:58;;;;;;;0.60;0.50;;;32.80;41.70;;;;;;5095427;28;20437;-67
2022/08/02 10:29:37;;;;;;;0.93;0.60;;;32.20;41.70;;;;;;5095244;28;20541;-66
2022/08/02 10:32:28;;;;;;;1.20;0.60;;;30.90;44.10;;;;;;5095328;28;20411;-66
2022/08/02 10:35:08;;;;;;;0.40;0.30;;;29.80;45.70;;;;;;5094582;28;20447;-70
2022/08/02 10:37:38;;;;;;;0.40;0.30;;;29.00;48.70;;;;;;5095336;28;20411;-70
2022/08/02 10:40:04;;;;;;;0.63;0.50;;;28.70;49.40;;;;;;5095320;28;20403;-70
2022/08/02 10:42:51;;;;;;;0.50;0.50;;;28.20;49.60;;;;;;5095335;28;20395;-70
2022/08/02 10:45:18;;;;;;;0.70;0.50;;;27.80;49.90;;;;;;5094974;28;20427;-70
2022/08/02 10:47:57;;;;;;;0.50;0.50;;;27.70;50.90;;;;;;5094730;28;20941;-70
2022/08/02 10:50:45;;;;;;;0.50;0.47;;;27.50;51.50;;;;;;5076662;28;20977;-68
2022/08/02 10:53:33;;;;;;;0.40;0.40;;;27.40;52.90;;;;;;5095002;28;20460;-68
2022/08/02 10:56:04;;;;;;;0.50;0.50;;;27.10;52.50;;;;;;5094988;28;20466;-70
2022/08/02 10:58:32;;;;;;;0.57;0.57;;;27.10;54.00;;;;;;5094587;28;20800;-69
2022/08/02 11:01:05;;;;;;;0.40;0.40;;;27.30;52.90;;;;;;5094823;28;20376;-70
2022/08/02 11:03:32;;;;;;;0.50;0.50;;;27.10;53.10;;;;;;5094546;28;20430;-69
2022/08/02 11:06:09;;;;;;;0.87;0.50;;;27.20;53.70;;;;;;5094778;28;20406;-69
2022/08/02 11:08:35;;;;;;;0.60;0.50;;;27.40;53.40;;;;;;5093787;28;20511;-69
2022/08/02 11:11:15;;;;;;;0.70;0.70;;;27.90;54.00;;;;;;5094591;28;20890;-69
2022/08/02 11:14:08;;;;;;;0.40;0.40;;;28.10;51.30;;;;;;5094645;28;20754;-70
2022/08/02 11:16:55;;;;;;;0.50;0.50;;;28.30;52.00;;;;;;5094681;28;20399;-71
2022/08/02 11:19:26;;;;;;;0.50;0.50;;;28.50;53.20;;;;;;5076129;28;20407;-70
2022/08/02 11:22:03;;;;;;;0.43;0.43;;;29.00;52.50;;;;;;5094491;28;20399;-70
2022/08/02 11:24:33;;;;;;;0.40;0.40;;;29.40;50.20;;;;;;5094447;28;20414;-69
2022/08/02 11:27:04;;;;;;;0.50;0.40;;;29.40;49.90;;;;;;5094223;28;20402;-68
2022/08/02 11:29:34;;;;;;;0.50;0.50;;;29.70;51.70;;;;;;5094025;28;20984;-70
2022/08/02 11:32:00;;;;;;;0.50;0.50;;;29.80;50.00;;;;;;5094264;28;20399;-70
2022/08/02 11:34:27;;;;;;;2.57;0.80;;;29.70;48.90;;;;;;5094106;28;20419;-70
2022/08/02 11:36:53;;;;;;;0.77;0.60;;;29.70;49.50;;;;;;5094006;28;20395;-69
2022/08/02 11:39:21;;;;;;;0.50;0.50;;;29.90;49.10;;;;;;5093896;28;20395;-69
2022/08/02 11:41:52;;;;;;;0.60;0.50;;;29.70;49.80;;;;;;5093999;28;20398;-68
2022/08/02 11:44:19;;;;;;;0.60;0.60;;;29.60;49.50;;;;;;5093953;28;20426;-70
2022/08/02 11:46:52;;;;;;;0.73;0.60;;;29.80;51.20;;;;;;5093927;28;20494;-70
2022/08/02 11:49:18;;;;;;;0.97;0.60;;;29.80;49.10;;;;;;5093647;28;20454;-70
2022/08/02 11:52:05;;;;;;;0.50;0.50;;;29.80;48.70;;;;;;5094256;28;20414;-69
2022/08/02 11:54:39;;;;;;;0.60;0.60;;;29.70;48.50;;;;;;5093795;28;20185;-70
2022/08/02 11:57:17;;;;;;;0.60;0.60;;;29.30;49.20;;;;;;5094002;28;20390;-70
2022/08/02 11:59:45;;;;;;;0.40;0.40;;;29.30;49.70;;;;;;5093685;28;20401;-70
2022/08/02 12:02:12;;;;;;;0.70;0.50;;;29.50;50.50;;;;;;5093696;28;20402;-69
2022/08/02 12:04:38;;;;;;;0.60;0.60;;;29.80;50.10;;;;;;5093757;28;20480;-68
2022/08/02 12:07:05;;;;;;;0.80;0.70;;;30.00;49.40;;;;;;5093721;28;20411;-68
2022/08/02 12:09:33;;;;;;;0.40;0.40;;;30.20;48.00;;;;;;5075461;28;20454;-68
2022/08/02 12:11:59;;;;;;;0.50;0.50;;;30.20;48.70;;;;;;5093753;28;20403;-70
2022/08/02 12:14:27;;;;;;;0.50;0.50;;;30.20;48.00;;;;;;5093526;28;20423;-70
2022/08/02 12:19:39;;;;;;;0.47;0.47;;;30.40;46.90;;;;;;5095299;28;20803;-69
2022/08/02 12:22:14;;;;;;;0.50;0.40;;;30.50;46.70;;;;;;5098022;28;20803;-68
2022/08/02 12:24:44;;;;;;;0.40;0.40;;;30.60;46.40;;;;;;5097505;28;20433;-69
2022/08/02 12:27:09;;;;;;;0.80;0.77;;;30.20;44.80;;;;;;5097644;28;20402;-71
2022/08/02 12:29:38;;;;;;;0.50;0.50;;;29.70;45.90;;;;;;5097435;28;20953;-70
2022/08/02 12:32:04;;;;;;;0.40;0.40;;;29.70;46.80;;;;;;5079499;28;20542;-70
2022/08/02 12:34:31;;;;;;;0.33;0.33;;;30.00;46.80;;;;;;5097605;28;20426;-70
2022/08/02 12:37:02;;;;;;;0.60;0.60;;;30.20;45.60;;;;;;5097578;28;20740;-69
2022/08/02 12:39:42;;;;;;;0.70;0.70;;;30.30;44.80;;;;;;5097257;28;20403;-70
2022/08/02 12:42:13;;;;;;;0.40;0.40;;;30.40;46.70;;;;;;5097507;28;20399;-69
2022/08/02 12:44:53;;;;;;;0.40;0.40;;;30.10;46.90;;;;;;5097423;28;20446;-68
2022/08/02 12:47:20;;;;;;;0.50;0.50;;;29.90;47.10;;;;;;5079164;28;20828;-69
2022/08/02 12:49:46;;;;;;;0.50;0.40;;;29.60;46.80;;;;;;5097211;28;20728;-68
2022/08/02 12:52:22;;;;;;;0.40;0.40;;;29.30;46.50;;;;;;5097390;28;20398;-69
2022/08/02 12:54:49;;;;;;;0.70;0.70;;;28.80;48.10;;;;;;5097030;28;20422;-69
2022/08/02 12:57:16;;;;;;;0.60;0.50;;;28.80;48.40;;;;;;5097178;28;20402;-68
2022/08/02 12:59:49;;;;;;;0.43;0.43;;;28.90;48.00;;;;;;5096976;28;20406;-68
2022/08/02 13:02:15;;;;;;;0.40;0.40;;;29.00;49.30;;;;;;5097076;28;20403;-68
2022/08/02 13:04:41;;;;;;;0.50;0.40;;;29.20;47.20;;;;;;5096937;28;20423;-70
2022/08/02 13:07:07;;;;;;;0.50;0.40;;;29.50;48.00;;;;;;5097121;28;20403;-70